sensor_id;sensor_type;location;lat;lon;timestamp;pressure;altitude;pressure_sealevel;temperature;humidity
8039;BME280;4062;49.844;8.120;2023-09-12T00:01:33;98936.91;;;19.19;59.96
8039;BME280;4062;49.844;8.120;2023-09-12T00:03:34;98939.59;;;19.19;60.01
8039;BME280;4062;49.844;8.120;2023-09-12T00:05:36;98937.75;;;19.20;59.96
8039;BME280;4062;49.844;8.120;2023-09-12T00:07:39;98942.25;;;19.19;59.72
8039;BME280;4062;49.844;8.120;2023-09-12T00:09:41;98936.06;;;19.19;60.03
8039;BME280;4062;49.844;8.120;2023-09-12T00:11:42;98936.91;;;19.19;59.78
8039;BME280;4062;49.844;8.120;2023-09-12T00:13:43;98946.78;;;19.19;59.82
8039;BME280;4062;49.844;8.120;2023-09-12T00:15:45;98938.75;;;19.19;60.10
8039;BME280;4062;49.844;8.120;2023-09-12T00:17:46;98941.41;;;19.19;59.91
8039;BME280;4062;49.844;8.120;2023-09-12T00:19:49;98953.81;;;19.20;59.89
8039;BME280;4062;49.844;8.120;2023-09-12T00:21:50;98942.38;;;19.18;60.02
8039;BME280;4062;49.844;8.120;2023-09-12T00:23:54;98937.75;;;19.20;60.04
8039;BME280;4062;49.844;8.120;2023-09-12T00:25:56;98927.16;;;19.18;60.05
8039;BME280;4062;49.844;8.120;2023-09-12T00:27:57;98930.72;;;19.19;59.87
8039;BME280;4062;49.844;8.120;2023-09-12T00:29:59;98923.53;;;19.19;60.04
8039;BME280;4062;49.844;8.120;2023-09-12T00:32:00;98921.81;;;19.18;60.04
8039;BME280;4062;49.844;8.120;2023-09-12T00:34:01;98919.13;;;19.18;59.84
8039;BME280;4062;49.844;8.120;2023-09-12T00:36:02;98919.00;;;19.20;60.04
8039;BME280;4062;49.844;8.120;2023-09-12T00:38:04;98915.50;;;19.19;59.93
8039;BME280;4062;49.844;8.120;2023-09-12T00:40:07;98915.50;;;19.19;60.10
8039;BME280;4062;49.844;8.120;2023-09-12T00:42:09;98909.28;;;19.19;59.83
8039;BME280;4062;49.844;8.120;2023-09-12T00:44:10;98904.78;;;19.19;60.09
8039;BME280;4062;49.844;8.120;2023-09-12T00:46:14;98893.22;;;19.19;60.00
8039;BME280;4062;49.844;8.120;2023-09-12T00:48:20;98898.56;;;19.19;60.15
8039;BME280;4062;49.844;8.120;2023-09-12T00:50:25;98892.34;;;19.18;60.10
8039;BME280;4062;49.844;8.120;2023-09-12T00:52:28;98902.94;;;19.20;60.09
8039;BME280;4062;49.844;8.120;2023-09-12T00:54:30;98892.34;;;19.18;59.85
8039;BME280;4062;49.844;8.120;2023-09-12T00:56:32;98896.75;;;19.19;59.77
8039;BME280;4062;49.844;8.120;2023-09-12T00:58:33;98895.91;;;19.19;59.79
8039;BME280;4062;49.844;8.120;2023-09-12T01:00:35;98901.25;;;19.19;60.10
8039;BME280;4062;49.844;8.120;2023-09-12T01:02:39;98891.38;;;19.19;59.96
8039;BME280;4062;49.844;8.120;2023-09-12T01:04:42;98892.34;;;19.18;60.01
8039;BME280;4062;49.844;8.120;2023-09-12T01:06:43;98896.75;;;19.19;59.78
8039;BME280;4062;49.844;8.120;2023-09-12T01:08:46;98887.88;;;19.19;59.81
8039;BME280;4062;49.844;8.120;2023-09-12T01:10:49;98888.72;;;19.19;59.96
8039;BME280;4062;49.844;8.120;2023-09-12T01:12:51;98885.19;;;19.19;59.91
8039;BME280;4062;49.844;8.120;2023-09-12T01:14:53;98878.00;;;19.19;59.70
8039;BME280;4062;49.844;8.120;2023-09-12T01:16:54;98888.72;;;19.19;60.16
8039;BME280;4062;49.844;8.120;2023-09-12T01:18:56;98886.03;;;19.19;59.74
8039;BME280;4062;49.844;8.120;2023-09-12T01:21:19;98890.53;;;19.19;59.89
8039;BME280;4062;49.844;8.120;2023-09-12T01:23:37;98902.09;;;19.19;59.95
8039;BME280;4062;49.844;8.120;2023-09-12T01:26:01;98897.69;;;19.18;60.05
8039;BME280;4062;49.844;8.120;2023-09-12T01:28:07;98901.25;;;19.19;60.10
8039;BME280;4062;49.844;8.120;2023-09-12T01:30:10;98906.59;;;19.19;59.84
8039;BME280;4062;49.844;8.120;2023-09-12T01:32:14;98915.50;;;19.19;59.89
8039;BME280;4062;49.844;8.120;2023-09-12T01:34:17;98920.00;;;19.19;60.01
8039;BME280;4062;49.844;8.120;2023-09-12T01:36:20;98916.31;;;19.20;59.97
8039;BME280;4062;49.844;8.120;2023-09-12T01:38:22;98910.13;;;19.19;59.97
8039;BME280;4062;49.844;8.120;2023-09-12T01:40:33;98900.38;;;19.18;60.00
8039;BME280;4062;49.844;8.120;2023-09-12T01:42:42;98897.69;;;19.18;59.95
8039;BME280;4062;49.844;8.120;2023-09-12T01:44:45;98893.22;;;19.19;59.87
8039;BME280;4062;49.844;8.120;2023-09-12T01:46:48;98893.22;;;19.19;59.94
8039;BME280;4062;49.844;8.120;2023-09-12T01:48:53;98899.41;;;19.19;60.00
8039;BME280;4062;49.844;8.120;2023-09-12T01:50:56;98907.44;;;19.19;60.09
8039;BME280;4062;49.844;8.120;2023-09-12T01:52:59;98898.56;;;19.19;60.03
8039;BME280;4062;49.844;8.120;2023-09-12T01:55:02;98897.59;;;19.20;60.25
8039;BME280;4062;49.844;8.120;2023-09-12T01:57:05;98890.53;;;19.19;60.15
8039;BME280;4062;49.844;8.120;2023-09-12T01:59:07;98893.22;;;19.19;60.08
8039;BME280;4062;49.844;8.120;2023-09-12T02:01:09;98894.06;;;19.19;60.13
8039;BME280;4062;49.844;8.120;2023-09-12T02:03:10;98887.88;;;19.19;59.84
8039;BME280;4062;49.844;8.120;2023-09-12T02:05:15;98887.88;;;19.19;59.98
8039;BME280;4062;49.844;8.120;2023-09-12T02:07:20;98878.00;;;19.19;59.88
8039;BME280;4062;49.844;8.120;2023-09-12T02:09:21;98887.88;;;19.19;59.84
8039;BME280;4062;49.844;8.120;2023-09-12T02:11:22;98871.78;;;19.19;60.07
8039;BME280;4062;49.844;8.120;2023-09-12T02:13:24;98883.34;;;19.19;60.08
8039;BME280;4062;49.844;8.120;2023-09-12T02:15:25;98873.47;;;19.20;59.89
8039;BME280;4062;49.844;8.120;2023-09-12T02:17:26;98870.81;;;19.20;60.22
8039;BME280;4062;49.844;8.120;2023-09-12T02:19:27;98869.13;;;19.19;59.90
8039;BME280;4062;49.844;8.120;2023-09-12T02:21:29;98867.28;;;19.19;60.14
8039;BME280;4062;49.844;8.120;2023-09-12T02:23:30;98866.44;;;19.19;59.87
8039;BME280;4062;49.844;8.120;2023-09-12T02:25:32;98868.25;;;19.18;60.11
8039;BME280;4062;49.844;8.120;2023-09-12T02:27:33;98876.16;;;19.20;59.95
8039;BME280;4062;49.844;8.120;2023-09-12T02:29:35;98878.00;;;19.19;60.21
8039;BME280;4062;49.844;8.120;2023-09-12T02:31:36;98883.34;;;19.19;59.87
8039;BME280;4062;49.844;8.120;2023-09-12T02:33:38;98887.88;;;19.19;60.04
8039;BME280;4062;49.844;8.120;2023-09-12T02:35:39;98894.06;;;19.19;60.02
8039;BME280;4062;49.844;8.120;2023-09-12T02:37:41;98887.88;;;19.19;60.09
8039;BME280;4062;49.844;8.120;2023-09-12T02:39:42;98885.19;;;19.19;59.92
8039;BME280;4062;49.844;8.120;2023-09-12T02:41:43;98893.22;;;19.19;59.94
8039;BME280;4062;49.844;8.120;2023-09-12T02:43:45;98898.47;;;19.20;60.03
8039;BME280;4062;49.844;8.120;2023-09-12T02:45:46;98900.25;;;19.20;59.99
8039;BME280;4062;49.844;8.120;2023-09-12T02:47:47;98903.94;;;19.19;59.69
8039;BME280;4062;49.844;8.120;2023-09-12T02:49:49;98894.91;;;19.20;60.12
8039;BME280;4062;49.844;8.120;2023-09-12T02:51:50;98891.38;;;19.19;59.95
8039;BME280;4062;49.844;8.120;2023-09-12T02:53:51;98890.53;;;19.19;59.87
8039;BME280;4062;49.844;8.120;2023-09-12T02:55:53;98885.19;;;19.19;59.95
8039;BME280;4062;49.844;8.120;2023-09-12T02:57:55;98878.84;;;19.20;59.89
8039;BME280;4062;49.844;8.120;2023-09-12T02:59:56;98874.47;;;19.19;59.90
8039;BME280;4062;49.844;8.120;2023-09-12T03:01:58;98886.03;;;19.19;59.89
8039;BME280;4062;49.844;8.120;2023-09-12T03:03:59;98886.88;;;19.20;60.01
8039;BME280;4062;49.844;8.120;2023-09-12T03:06:02;98889.53;;;19.20;59.99
8039;BME280;4062;49.844;8.120;2023-09-12T03:08:06;98884.19;;;19.20;59.99
8039;BME280;4062;49.844;8.120;2023-09-12T03:10:07;98875.31;;;19.19;59.99
8039;BME280;4062;49.844;8.120;2023-09-12T03:12:09;98866.44;;;19.19;59.92
8039;BME280;4062;49.844;8.120;2023-09-12T03:14:10;98860.09;;;19.20;60.00
8039;BME280;4062;49.844;8.120;2023-09-12T03:16:12;98864.59;;;19.19;59.88
8039;BME280;4062;49.844;8.120;2023-09-12T03:18:13;98865.44;;;19.20;59.78
8039;BME280;4062;49.844;8.120;2023-09-12T03:20:15;98876.16;;;19.20;59.78
8039;BME280;4062;49.844;8.120;2023-09-12T03:22:16;98873.47;;;19.20;59.81
8039;BME280;4062;49.844;8.120;2023-09-12T03:24:17;98876.16;;;19.20;60.06
8039;BME280;4062;49.844;8.120;2023-09-12T03:26:19;98863.66;;;19.20;59.88
8039;BME280;4062;49.844;8.120;2023-09-12T03:28:21;98863.66;;;19.20;59.96
8039;BME280;4062;49.844;8.120;2023-09-12T03:30:22;98852.06;;;19.20;60.06
8039;BME280;4062;49.844;8.120;2023-09-12T03:32:23;98842.34;;;19.19;60.30
8039;BME280;4062;49.844;8.120;2023-09-12T03:34:25;98843.19;;;19.19;60.14
8039;BME280;4062;49.844;8.120;2023-09-12T03:36:26;98849.38;;;19.20;60.19
8039;BME280;4062;49.844;8.120;2023-09-12T03:38:28;98851.22;;;19.19;59.90
8039;BME280;4062;49.844;8.120;2023-09-12T03:40:30;98860.09;;;19.20;59.71
8039;BME280;4062;49.844;8.120;2023-09-12T03:42:31;98862.78;;;19.20;60.15
8039;BME280;4062;49.844;8.120;2023-09-12T03:44:32;98860.09;;;19.20;59.91
8039;BME280;4062;49.844;8.120;2023-09-12T03:46:34;98863.75;;;19.19;59.91
8039;BME280;4062;49.844;8.120;2023-09-12T03:48:35;98863.66;;;19.20;60.09
8039;BME280;4062;49.844;8.120;2023-09-12T03:50:37;98862.78;;;19.20;60.03
8039;BME280;4062;49.844;8.120;2023-09-12T03:52:39;98864.59;;;19.19;60.04
8039;BME280;4062;49.844;8.120;2023-09-12T03:54:40;98865.44;;;19.20;60.02
8039;BME280;4062;49.844;8.120;2023-09-12T03:56:43;98862.78;;;19.20;60.00
8039;BME280;4062;49.844;8.120;2023-09-12T03:58:44;98859.25;;;19.19;60.24
8039;BME280;4062;49.844;8.120;2023-09-12T04:00:45;98861.94;;;19.19;60.22
8039;BME280;4062;49.844;8.120;2023-09-12T04:02:46;98860.09;;;19.20;60.04
8039;BME280;4062;49.844;8.120;2023-09-12T04:04:48;98862.78;;;19.20;59.96
8039;BME280;4062;49.844;8.120;2023-09-12T04:06:49;98865.44;;;19.20;59.96
8039;BME280;4062;49.844;8.120;2023-09-12T04:08:51;98868.13;;;19.20;59.87
8039;BME280;4062;49.844;8.120;2023-09-12T04:10:52;98865.44;;;19.20;60.01
8039;BME280;4062;49.844;8.120;2023-09-12T04:12:53;98865.44;;;19.20;59.97
8039;BME280;4062;49.844;8.120;2023-09-12T04:14:54;98873.47;;;19.20;59.96
8039;BME280;4062;49.844;8.120;2023-09-12T04:16:56;98864.59;;;19.19;59.71
8039;BME280;4062;49.844;8.120;2023-09-12T04:18:57;98869.97;;;19.19;60.02
8039;BME280;4062;49.844;8.120;2023-09-12T04:20:58;98870.81;;;19.20;59.80
8039;BME280;4062;49.844;8.120;2023-09-12T04:23:03;98875.31;;;19.19;59.93
8039;BME280;4062;49.844;8.120;2023-09-12T04:25:05;98876.16;;;19.20;60.21
8039;BME280;4062;49.844;8.120;2023-09-12T04:27:06;98881.50;;;19.20;60.08
8039;BME280;4062;49.844;8.120;2023-09-12T04:29:08;98878.00;;;19.19;59.95
8039;BME280;4062;49.844;8.120;2023-09-12T04:31:09;98885.19;;;19.19;59.96
8039;BME280;4062;49.844;8.120;2023-09-12T04:33:10;98882.50;;;19.19;60.12
8039;BME280;4062;49.844;8.120;2023-09-12T04:35:12;98873.47;;;19.20;60.31
8039;BME280;4062;49.844;8.120;2023-09-12T04:37:13;98869.13;;;19.19;59.92
8039;BME280;4062;49.844;8.120;2023-09-12T04:39:14;98869.97;;;19.19;60.10
8039;BME280;4062;49.844;8.120;2023-09-12T04:41:16;98874.34;;;19.20;60.07
8039;BME280;4062;49.844;8.120;2023-09-12T04:43:18;98875.31;;;19.19;60.10
8039;BME280;4062;49.844;8.120;2023-09-12T04:45:19;98868.13;;;19.20;60.09
8039;BME280;4062;49.844;8.120;2023-09-12T04:47:20;98863.66;;;19.20;59.97
8039;BME280;4062;49.844;8.120;2023-09-12T04:49:22;98859.25;;;19.19;59.93
8039;BME280;4062;49.844;8.120;2023-09-12T04:51:23;98854.72;;;19.20;59.94
8039;BME280;4062;49.844;8.120;2023-09-12T04:53:25;98857.41;;;19.20;59.87
8039;BME280;4062;49.844;8.120;2023-09-12T04:55:26;98859.25;;;19.19;59.90
8039;BME280;4062;49.844;8.120;2023-09-12T04:57:28;98867.28;;;19.19;60.09
8039;BME280;4062;49.844;8.120;2023-09-12T04:59:31;98871.78;;;19.19;60.29
8039;BME280;4062;49.844;8.120;2023-09-12T05:01:33;98874.47;;;19.19;60.25
8039;BME280;4062;49.844;8.120;2023-09-12T05:03:35;98886.03;;;19.19;60.19
8039;BME280;4062;49.844;8.120;2023-09-12T05:05:36;98879.72;;;19.20;59.86
8039;BME280;4062;49.844;8.120;2023-09-12T05:07:37;98886.88;;;19.20;60.12
8039;BME280;4062;49.844;8.120;2023-09-12T05:09:39;98878.00;;;19.19;59.94
8039;BME280;4062;49.844;8.120;2023-09-12T05:11:40;98872.63;;;19.19;59.82
8039;BME280;4062;49.844;8.120;2023-09-12T05:13:41;98876.16;;;19.20;59.91
8039;BME280;4062;49.844;8.120;2023-09-12T05:15:43;98872.53;;;19.21;59.92
8039;BME280;4062;49.844;8.120;2023-09-12T05:17:44;98866.31;;;19.20;60.06
8039;BME280;4062;49.844;8.120;2023-09-12T05:19:45;98862.78;;;19.20;60.22
8039;BME280;4062;49.844;8.120;2023-09-12T05:21:47;98860.09;;;19.20;60.15
8039;BME280;4062;49.844;8.120;2023-09-12T05:23:48;98857.41;;;19.20;60.20
8039;BME280;4062;49.844;8.120;2023-09-12T05:25:49;98852.06;;;19.20;59.94
8039;BME280;4062;49.844;8.120;2023-09-12T05:27:51;98851.22;;;19.19;59.77
8039;BME280;4062;49.844;8.120;2023-09-12T05:29:52;98846.69;;;19.20;60.09
8039;BME280;4062;49.844;8.120;2023-09-12T05:31:54;98844.03;;;19.20;59.97
8039;BME280;4062;49.844;8.120;2023-09-12T05:33:55;98849.38;;;19.20;60.08
8039;BME280;4062;49.844;8.120;2023-09-12T05:35:56;98845.84;;;19.19;60.14
8039;BME280;4062;49.844;8.120;2023-09-12T05:37:58;98850.25;;;19.20;60.24
8039;BME280;4062;49.844;8.120;2023-09-12T05:39:59;98852.06;;;19.20;60.10
8039;BME280;4062;49.844;8.120;2023-09-12T05:42:00;98846.69;;;19.20;60.10
8039;BME280;4062;49.844;8.120;2023-09-12T05:44:02;98851.22;;;19.19;60.24
8039;BME280;4062;49.844;8.120;2023-09-12T05:46:03;98857.41;;;19.20;59.89
8039;BME280;4062;49.844;8.120;2023-09-12T05:48:04;98864.59;;;19.19;60.00
8039;BME280;4062;49.844;8.120;2023-09-12T05:50:07;98867.28;;;19.19;59.88
8039;BME280;4062;49.844;8.120;2023-09-12T05:52:09;98860.97;;;19.20;59.94
8039;BME280;4062;49.844;8.120;2023-09-12T05:54:10;98865.44;;;19.20;60.02
8039;BME280;4062;49.844;8.120;2023-09-12T05:56:12;98870.81;;;19.20;60.00
8039;BME280;4062;49.844;8.120;2023-09-12T05:58:13;98875.19;;;19.21;60.06
8039;BME280;4062;49.844;8.120;2023-09-12T06:00:15;98878.84;;;19.20;60.03
8039;BME280;4062;49.844;8.120;2023-09-12T06:02:17;98887.75;;;19.20;59.93
8039;BME280;4062;49.844;8.120;2023-09-12T06:04:19;98878.84;;;19.20;60.01
8039;BME280;4062;49.844;8.120;2023-09-12T06:06:20;98885.06;;;19.20;59.97
8039;BME280;4062;49.844;8.120;2023-09-12T06:08:21;98885.06;;;19.20;60.13
8039;BME280;4062;49.844;8.120;2023-09-12T06:10:23;98879.72;;;19.20;60.19
8039;BME280;4062;49.844;8.120;2023-09-12T06:12:24;98877.03;;;19.20;59.87
8039;BME280;4062;49.844;8.120;2023-09-12T06:14:25;98879.72;;;19.20;60.02
8039;BME280;4062;49.844;8.120;2023-09-12T06:16:27;98886.88;;;19.20;60.16
8039;BME280;4062;49.844;8.120;2023-09-12T06:18:28;98893.94;;;19.21;59.97
8039;BME280;4062;49.844;8.120;2023-09-12T06:20:32;98903.81;;;19.20;59.91
8039;BME280;4062;49.844;8.120;2023-09-12T06:22:33;98902.94;;;19.20;60.29
8039;BME280;4062;49.844;8.120;2023-09-12T06:24:35;98902.94;;;19.20;60.12
8039;BME280;4062;49.844;8.120;2023-09-12T06:26:36;98903.81;;;19.20;60.22
8039;BME280;4062;49.844;8.120;2023-09-12T06:28:38;98901.13;;;19.20;60.02
8039;BME280;4062;49.844;8.120;2023-09-12T06:30:39;98905.63;;;19.20;60.10
8039;BME280;4062;49.844;8.120;2023-09-12T06:32:40;98901.13;;;19.20;59.94
8039;BME280;4062;49.844;8.120;2023-09-12T06:34:42;98906.50;;;19.20;60.13
8039;BME280;4062;49.844;8.120;2023-09-12T06:36:43;98906.50;;;19.20;59.91
8039;BME280;4062;49.844;8.120;2023-09-12T06:38:46;98906.50;;;19.20;59.88
8039;BME280;4062;49.844;8.120;2023-09-12T06:40:47;98908.22;;;19.21;59.82
8039;BME280;4062;49.844;8.120;2023-09-12T06:42:48;98909.16;;;19.20;60.15
8039;BME280;4062;49.844;8.120;2023-09-12T06:44:49;98906.50;;;19.20;60.14
8039;BME280;4062;49.844;8.120;2023-09-12T06:46:51;98903.81;;;19.20;59.86
8039;BME280;4062;49.844;8.120;2023-09-12T06:48:52;98906.50;;;19.20;60.25
8039;BME280;4062;49.844;8.120;2023-09-12T06:50:54;98898.47;;;19.20;60.00
8039;BME280;4062;49.844;8.120;2023-09-12T06:52:56;98902.84;;;19.21;60.27
8039;BME280;4062;49.844;8.120;2023-09-12T06:54:57;98902.84;;;19.21;60.02
8039;BME280;4062;49.844;8.120;2023-09-12T06:56:58;98913.56;;;19.21;60.02
8039;BME280;4062;49.844;8.120;2023-09-12T06:58:59;98916.25;;;19.21;59.87
8039;BME280;4062;49.844;8.120;2023-09-12T07:01:07;98915.38;;;19.21;59.92
8039;BME280;4062;49.844;8.120;2023-09-12T07:03:08;98919.88;;;19.20;59.94
8039;BME280;4062;49.844;8.120;2023-09-12T07:05:11;98912.69;;;19.21;60.19
8039;BME280;4062;49.844;8.120;2023-09-12T07:07:12;98928.75;;;19.21;60.03
8039;BME280;4062;49.844;8.120;2023-09-12T07:09:13;98923.41;;;19.21;59.84
8039;BME280;4062;49.844;8.120;2023-09-12T07:11:15;98923.41;;;19.21;60.11
8039;BME280;4062;49.844;8.120;2023-09-12T07:13:16;98925.13;;;19.22;60.12
8039;BME280;4062;49.844;8.120;2023-09-12T07:15:18;98925.13;;;19.22;59.87
8039;BME280;4062;49.844;8.120;2023-09-12T07:17:19;98920.72;;;19.21;59.83
8039;BME280;4062;49.844;8.120;2023-09-12T07:19:20;98913.66;;;19.20;60.10
8039;BME280;4062;49.844;8.120;2023-09-12T07:21:21;98913.56;;;19.21;60.08
8039;BME280;4062;49.844;8.120;2023-09-12T07:23:23;98908.22;;;19.21;60.08
8039;BME280;4062;49.844;8.120;2023-09-12T07:25:24;98914.41;;;19.22;59.88
8039;BME280;4062;49.844;8.120;2023-09-12T07:27:25;98913.56;;;19.21;60.17
8039;BME280;4062;49.844;8.120;2023-09-12T07:29:26;98909.06;;;19.22;59.87
8039;BME280;4062;49.844;8.120;2023-09-12T07:31:28;98908.22;;;19.21;60.02
8039;BME280;4062;49.844;8.120;2023-09-12T07:33:30;98909.06;;;19.22;60.00
8039;BME280;4062;49.844;8.120;2023-09-12T07:35:31;98902.84;;;19.21;60.12
8039;BME280;4062;49.844;8.120;2023-09-12T07:37:32;98905.53;;;19.21;59.93
8039;BME280;4062;49.844;8.120;2023-09-12T07:39:33;98903.69;;;19.22;60.25
8039;BME280;4062;49.844;8.120;2023-09-12T07:41:35;98908.22;;;19.21;59.74
8039;BME280;4062;49.844;8.120;2023-09-12T07:43:36;98906.50;;;19.20;60.09
8039;BME280;4062;49.844;8.120;2023-09-12T07:45:37;98914.41;;;19.22;59.93
8039;BME280;4062;49.844;8.120;2023-09-12T07:47:38;98908.22;;;19.21;59.93
8039;BME280;4062;49.844;8.120;2023-09-12T07:49:40;98914.41;;;19.22;60.08
8039;BME280;4062;49.844;8.120;2023-09-12T07:51:41;98919.78;;;19.22;60.13
8039;BME280;4062;49.844;8.120;2023-09-12T07:53:42;98919.78;;;19.22;59.92
8039;BME280;4062;49.844;8.120;2023-09-12T07:55:44;98910.88;;;19.21;60.06
8039;BME280;4062;49.844;8.120;2023-09-12T07:57:48;98916.25;;;19.21;60.18
8039;BME280;4062;49.844;8.120;2023-09-12T07:59:49;98917.97;;;19.23;60.12
8039;BME280;4062;49.844;8.120;2023-09-12T08:01:50;98913.44;;;19.23;59.99
8039;BME280;4062;49.844;8.120;2023-09-12T08:03:52;98910.78;;;19.23;60.02
8039;BME280;4062;49.844;8.120;2023-09-12T08:05:57;98920.66;;;19.23;60.14
8039;BME280;4062;49.844;8.120;2023-09-12T08:07:58;98916.25;;;19.21;60.02
8039;BME280;4062;49.844;8.120;2023-09-12T08:10:00;98919.78;;;19.22;60.01
8039;BME280;4062;49.844;8.120;2023-09-12T08:12:01;98917.00;;;19.24;59.78
8039;BME280;4062;49.844;8.120;2023-09-12T08:14:02;98919.78;;;19.22;60.09
8039;BME280;4062;49.844;8.120;2023-09-12T08:16:04;98925.03;;;19.24;59.88
8039;BME280;4062;49.844;8.120;2023-09-12T08:18:05;98918.81;;;19.23;60.23
8039;BME280;4062;49.844;8.120;2023-09-12T08:20:08;98916.13;;;19.23;59.88
8039;BME280;4062;49.844;8.120;2023-09-12T08:22:12;98919.69;;;19.24;59.79
8039;BME280;4062;49.844;8.120;2023-09-12T08:24:13;98914.31;;;19.24;60.01
8039;BME280;4062;49.844;8.120;2023-09-12T08:26:14;98910.78;;;19.23;59.69
8039;BME280;4062;49.844;8.120;2023-09-12T08:28:15;98908.97;;;19.24;59.98
8039;BME280;4062;49.844;8.120;2023-09-12T08:30:17;98910.78;;;19.23;59.92
8039;BME280;4062;49.844;8.120;2023-09-12T08:32:18;98908.09;;;19.23;59.94
8039;BME280;4062;49.844;8.120;2023-09-12T08:34:21;98913.44;;;19.23;60.11
8039;BME280;4062;49.844;8.120;2023-09-12T08:36:22;98912.50;;;19.24;60.12
8039;BME280;4062;49.844;8.120;2023-09-12T08:38:23;98917.84;;;19.24;59.88
8039;BME280;4062;49.844;8.120;2023-09-12T08:40:26;98917.00;;;19.24;60.23
8039;BME280;4062;49.844;8.120;2023-09-12T08:42:27;98926.84;;;19.23;60.00
8039;BME280;4062;49.844;8.120;2023-09-12T08:44:30;98931.25;;;19.24;59.81
8039;BME280;4062;49.844;8.120;2023-09-12T08:46:31;98931.25;;;19.24;60.13
8039;BME280;4062;49.844;8.120;2023-09-12T08:48:33;98934.75;;;19.25;60.04
8039;BME280;4062;49.844;8.120;2023-09-12T08:50:34;98934.75;;;19.25;59.91
8039;BME280;4062;49.844;8.120;2023-09-12T08:52:36;98936.59;;;19.24;60.18
8039;BME280;4062;49.844;8.120;2023-09-12T08:54:37;98946.34;;;19.25;60.15
8039;BME280;4062;49.844;8.120;2023-09-12T08:56:40;98948.06;;;19.26;60.03
8039;BME280;4062;49.844;8.120;2023-09-12T08:58:44;98950.75;;;19.26;59.96
8039;BME280;4062;49.844;8.120;2023-09-12T09:00:46;98952.56;;;19.26;59.74
8039;BME280;4062;49.844;8.120;2023-09-12T09:02:49;98944.53;;;19.26;59.97
8039;BME280;4062;49.844;8.120;2023-09-12T09:04:51;98948.06;;;19.26;59.93
8039;BME280;4062;49.844;8.120;2023-09-12T09:06:53;98944.53;;;19.26;59.73
8039;BME280;4062;49.844;8.120;2023-09-12T09:08:56;98945.41;;;19.26;59.90
8039;BME280;4062;49.844;8.120;2023-09-12T09:10:59;98948.06;;;19.26;59.84
8039;BME280;4062;49.844;8.120;2023-09-12T09:13:04;98944.44;;;19.27;60.02
8039;BME280;4062;49.844;8.120;2023-09-12T09:15:26;98935.44;;;19.28;60.21
8039;BME280;4062;49.844;8.120;2023-09-12T09:17:28;98937.25;;;19.28;60.06
8039;BME280;4062;49.844;8.120;2023-09-12T09:19:43;98934.56;;;19.28;60.08
8039;BME280;4062;49.844;8.120;2023-09-12T09:21:45;98929.22;;;19.28;60.08
8039;BME280;4062;49.844;8.120;2023-09-12T09:23:47;98929.09;;;19.29;60.18
8039;BME280;4062;49.844;8.120;2023-09-12T09:25:52;98928.25;;;19.29;59.71
8039;BME280;4062;49.844;8.120;2023-09-12T09:27:54;98920.22;;;19.29;60.04
8039;BME280;4062;49.844;8.120;2023-09-12T09:29:55;98923.75;;;19.29;59.84
8039;BME280;4062;49.844;8.120;2023-09-12T09:31:58;98921.94;;;19.30;59.89
8039;BME280;4062;49.844;8.120;2023-09-12T09:34:00;98919.25;;;19.30;59.90
8039;BME280;4062;49.844;8.120;2023-09-12T09:36:04;98919.25;;;19.30;59.70
8039;BME280;4062;49.844;8.120;2023-09-12T09:38:06;98921.94;;;19.30;59.71
8039;BME280;4062;49.844;8.120;2023-09-12T09:40:08;98919.16;;;19.31;60.01
8039;BME280;4062;49.844;8.120;2023-09-12T09:42:11;98921.81;;;19.31;59.93
8039;BME280;4062;49.844;8.120;2023-09-12T09:44:16;98917.34;;;19.32;59.91
8039;BME280;4062;49.844;8.120;2023-09-12T09:46:18;98915.50;;;19.32;60.03
8039;BME280;4062;49.844;8.120;2023-09-12T09:48:20;98911.88;;;19.33;59.80
8039;BME280;4062;49.844;8.120;2023-09-12T09:50:21;98922.59;;;19.33;60.04
8039;BME280;4062;49.844;8.120;2023-09-12T09:52:26;98919.91;;;19.33;59.73
8039;BME280;4062;49.844;8.120;2023-09-12T09:54:30;98911.88;;;19.33;60.00
8039;BME280;4062;49.844;8.120;2023-09-12T09:56:31;98918.06;;;19.34;59.98
8039;BME280;4062;49.844;8.120;2023-09-12T09:58:33;98913.69;;;19.33;60.01
8039;BME280;4062;49.844;8.120;2023-09-12T10:00:37;98903.94;;;19.32;59.85
8039;BME280;4062;49.844;8.120;2023-09-12T10:02:39;98914.53;;;19.33;59.87
8039;BME280;4062;49.844;8.120;2023-09-12T10:04:44;98901.16;;;19.33;59.97
8039;BME280;4062;49.844;8.120;2023-09-12T10:06:47;98898.47;;;19.33;60.00
8039;BME280;4062;49.844;8.120;2023-09-12T10:08:52;98893.97;;;19.34;59.83
8039;BME280;4062;49.844;8.120;2023-09-12T10:10:54;98893.97;;;19.34;59.78
8039;BME280;4062;49.844;8.120;2023-09-12T10:12:59;98902.00;;;19.34;59.68
8039;BME280;4062;49.844;8.120;2023-09-12T10:15:01;98900.19;;;19.34;59.81
8039;BME280;4062;49.844;8.120;2023-09-12T10:17:03;98901.16;;;19.33;60.09
8039;BME280;4062;49.844;8.120;2023-09-12T10:19:14;98906.50;;;19.33;59.95
8039;BME280;4062;49.844;8.120;2023-09-12T10:21:21;98896.66;;;19.34;60.05
8039;BME280;4062;49.844;8.120;2023-09-12T10:23:47;98892.16;;;19.34;60.02
8039;BME280;4062;49.844;8.120;2023-09-12T10:25:52;98899.31;;;19.34;60.00
8039;BME280;4062;49.844;8.120;2023-09-12T10:27:55;98893.97;;;19.34;60.06
8039;BME280;4062;49.844;8.120;2023-09-12T10:29:57;98896.66;;;19.34;59.99
8039;BME280;4062;49.844;8.120;2023-09-12T10:32:01;98901.16;;;19.33;59.92
8039;BME280;4062;49.844;8.120;2023-09-12T10:34:03;98895.91;;;19.32;59.72
8039;BME280;4062;49.844;8.120;2023-09-12T10:36:08;98897.63;;;19.33;59.77
8039;BME280;4062;49.844;8.120;2023-09-12T10:38:09;98892.28;;;19.33;59.79
8039;BME280;4062;49.844;8.120;2023-09-12T10:40:13;98901.16;;;19.33;60.04
8039;BME280;4062;49.844;8.120;2023-09-12T10:42:17;98901.16;;;19.33;59.99
8039;BME280;4062;49.844;8.120;2023-09-12T10:44:20;98894.06;;;19.32;60.04
8039;BME280;4062;49.844;8.120;2023-09-12T10:46:22;98890.44;;;19.33;59.90
8039;BME280;4062;49.844;8.120;2023-09-12T10:48:24;98887.75;;;19.33;59.74
8039;BME280;4062;49.844;8.120;2023-09-12T10:50:25;98884.25;;;19.33;60.03
8039;BME280;4062;49.844;8.120;2023-09-12T10:52:28;98884.13;;;19.34;59.72
8039;BME280;4062;49.844;8.120;2023-09-12T10:54:40;98885.09;;;19.33;59.77
8039;BME280;4062;49.844;8.120;2023-09-12T10:56:41;98892.28;;;19.33;59.79
8039;BME280;4062;49.844;8.120;2023-09-12T11:01:25;98878.88;;;19.33;59.93
8039;BME280;4062;49.844;8.120;2023-09-12T11:09:37;98889.59;;;19.33;59.74
8039;BME280;4062;49.844;8.120;2023-09-12T11:11:39;98894.94;;;19.33;60.05
8039;BME280;4062;49.844;8.120;2023-09-12T11:13:40;98886.91;;;19.33;59.87
8039;BME280;4062;49.844;8.120;2023-09-12T11:16:11;98883.38;;;19.32;59.71